Time;durP1;ratioP1;P1;durP2;ratioP2;P2;SDS_P1;SDS_P2;PMS_P1;PMS_P2;Temp;Humidity;BMP_temperature;BMP_pressure;BME280_temperature;BME280_humidity;BME280_pressure;Samples;Min_cycle;Max_cycle;Signal;HPM_P1;HPM_P2
2022/08/28 00:00:15;;;;;;;10.63;5.88;;;;;;;12.64;90.04;101808.16;1254781;23;20270;-95
2022/08/28 00:00:47;;;;;;;7.97;5.45;;;;;;;12.63;89.52;101811.88;1255689;23;20263;-95
2022/08/28 00:01:18;;;;;;;5.25;4.18;;;;;;;12.72;89.91;101817.00;1262553;23;20266;-95
2022/08/28 00:01:50;;;;;;;14.43;4.13;;;;;;;12.73;89.64;101810.63;1262553;23;20258;-95
2022/08/28 00:02:22;;;;;;;11.02;4.82;;;;;;;12.75;89.22;101809.38;1251077;23;20263;-96
2022/08/28 00:02:55;;;;;;;8.80;4.15;;;;;;;12.74;89.50;101806.91;1257269;23;20271;-95
2022/08/28 00:03:27;;;;;;;6.00;4.18;;;;;;;12.68;89.38;101814.75;1262554;23;20258;-95
2022/08/28 00:04:00;;;;;;;9.48;4.40;;;;;;;12.69;89.48;101816.38;1259508;23;20262;-96
2022/08/28 00:04:32;;;;;;;9.32;4.50;;;;;;;12.67;89.48;101823.78;1255793;23;20270;-95
2022/08/28 00:05:05;;;;;;;9.10;4.78;;;;;;;12.73;89.16;101815.97;1258956;23;20273;-96
2022/08/28 00:05:38;;;;;;;8.50;3.85;;;;;;;12.77;89.53;101817.19;1257887;23;20286;-95
2022/08/28 00:06:11;;;;;;;7.75;3.97;;;;;;;12.74;89.53;101815.75;1257617;23;20259;-96
2022/08/28 00:06:43;;;;;;;11.68;5.70;;;;;;;12.79;89.36;101815.97;1257883;23;20259;-95
2022/08/28 00:07:15;;;;;;;7.20;4.50;;;;;;;12.79;89.45;101815.13;1257893;23;20251;-96
2022/08/28 00:07:46;;;;;;;8.40;5.20;;;;;;;12.82;88.69;101815.53;1249880;23;20271;-95
2022/08/28 00:08:18;;;;;;;6.32;3.60;;;;;;;12.78;88.34;101816.16;1254399;23;20274;-95
2022/08/28 00:08:50;;;;;;;6.75;4.00;;;;;;;12.79;88.40;101815.97;1256645;23;20584;-95
2022/08/28 00:09:22;;;;;;;9.63;5.53;;;;;;;12.79;88.25;101815.97;1256876;23;20247;-96
2022/08/28 00:09:53;;;;;;;8.70;4.90;;;;;;;12.78;88.35;101818.84;1252153;23;20256;-95
2022/08/28 00:10:25;;;;;;;7.10;4.50;;;;;;;12.79;88.45;101821.31;1263620;23;20014;-96
2022/08/28 00:10:57;;;;;;;7.78;4.43;;;;;;;12.76;88.63;101821.72;1263471;23;20262;-95
2022/08/28 00:11:28;;;;;;;9.48;4.45;;;;;;;12.73;88.85;101818.63;1263672;23;20014;-96
2022/08/28 00:12:01;;;;;;;7.75;4.28;;;;;;;12.70;89.30;101819.88;1262939;23;20372;-96
2022/08/28 00:12:33;;;;;;;8.43;3.97;;;;;;;12.71;89.47;101823.38;1263472;23;20294;-95
2022/08/28 00:13:07;;;;;;;9.13;4.15;;;;;;;12.71;88.93;101823.38;1255478;23;20267;-95
2022/08/28 00:13:38;;;;;;;6.45;4.13;;;;;;;12.71;89.36;101821.53;1248875;23;20267;-95
2022/08/28 00:14:10;;;;;;;8.50;4.63;;;;;;;12.69;89.27;101820.91;1252181;23;20266;-95
2022/08/28 00:14:41;;;;;;;5.57;4.13;;;;;;;12.76;89.61;101823.56;1249953;23;20268;-96
2022/08/28 00:15:20;;;;;;;6.40;4.95;;;;;;;12.84;89.22;101818.00;1251318;23;20011;-96
2022/08/28 00:20:03;;;;;;;24.55;5.70;;;;;;;12.62;89.49;101820.91;1275079;23;20240;-95
2022/08/28 00:20:36;;;;;;;20.27;5.75;;;;;;;12.62;89.05;101826.25;1274710;23;20233;-95
2022/08/28 00:21:09;;;;;;;25.15;5.47;;;;;;;12.58;89.25;101824.19;1268924;23;20254;-96
2022/08/28 00:21:40;;;;;;;12.90;5.07;;;;;;;12.53;89.50;101823.97;1260517;23;20274;-96
2022/08/28 00:22:12;;;;;;;10.68;4.50;;;;;;;12.58;89.54;101819.66;1262821;23;20640;-96
2022/08/28 00:22:47;;;;;;;11.43;4.38;;;;;;;12.49;89.40;101830.75;1258171;23;20341;-96
2022/08/28 00:23:19;;;;;;;9.88;4.47;;;;;;;12.49;89.94;101826.25;1258050;23;20255;-95
2022/08/28 00:23:52;;;;;;;10.15;4.38;;;;;;;12.48;90.43;101829.94;1258155;23;20259;-95
2022/08/28 00:24:23;;;;;;;6.18;3.83;;;;;;;12.47;90.34;101822.94;1262161;23;20262;-95
2022/08/28 00:24:55;;;;;;;11.50;4.68;;;;;;;12.53;90.42;101821.31;1261726;23;20715;-95
2022/08/28 00:25:28;;;;;;;6.28;4.18;;;;;;;12.49;90.26;101831.59;1267504;23;20661;-95
2022/08/28 00:26:00;;;;;;;6.47;4.28;;;;;;;12.49;90.53;101828.91;1256384;23;20255;-96
2022/08/28 00:28:13;;;;;;;8.85;4.35;;;;;;;12.47;90.77;101828.28;1262907;23;20292;-95
2022/08/28 00:28:54;;;;;;;5.53;3.97;;;;;;;12.52;90.57;101825.00;1260739;23;20243;-95
2022/08/28 00:29:26;;;;;;;10.32;4.30;;;;;;;12.52;90.26;101823.16;1262830;23;20269;-95
2022/08/28 00:29:58;;;;;;;8.25;3.97;;;;;;;12.53;90.65;101830.13;1262613;23;20243;-95
2022/08/28 00:30:34;;;;;;;19.55;4.20;;;;;;;12.52;90.37;101835.69;1259445;23;20019;-95
2022/08/28 00:31:05;;;;;;;11.15;3.75;;;;;;;12.41;90.41;101837.13;1258432;23;20349;-95
2022/08/28 00:31:38;;;;;;;10.50;4.13;;;;;;;12.51;90.85;101829.53;1256492;23;20313;-96
2022/08/28 00:32:10;;;;;;;10.73;5.03;;;;;;;12.47;90.62;101833.63;1258570;23;20326;-95
2022/08/28 00:32:41;;;;;;;8.55;4.57;;;;;;;12.47;90.04;101830.97;1263581;23;20254;-96
2022/08/28 00:33:18;;;;;;;8.63;3.72;;;;;;;12.46;90.38;101832.00;1263352;23;20258;-96
2022/08/28 00:33:50;;;;;;;11.23;4.38;;;;;;;12.48;90.28;101824.59;1264482;23;20242;-96
2022/08/28 00:34:22;;;;;;;13.15;4.75;;;;;;;12.48;90.00;101823.78;1268751;23;20276;-96
2022/08/28 00:35:04;;;;;;;6.22;4.20;;;;;;;12.38;90.61;101824.19;1266663;23;20243;-96
2022/08/28 00:35:35;;;;;;;9.25;3.40;;;;;;;12.36;90.46;101827.06;1271669;23;20257;-96
2022/08/28 00:36:07;;;;;;;6.88;4.60;;;;;;;12.37;90.28;101833.22;1268410;23;20253;-94
2022/08/28 00:36:40;;;;;;;11.40;5.57;;;;;;;12.45;90.55;101829.53;1271385;23;20589;-95
2022/08/28 00:37:11;;;;;;;12.32;4.63;;;;;;;12.41;91.06;101836.31;1274579;23;20307;-95
2022/08/28 00:37:44;;;;;;;7.28;3.80;;;;;;;12.42;90.73;101824.59;1269341;23;20257;-95
2022/08/28 00:38:20;;;;;;;8.25;3.75;;;;;;;12.49;90.62;101826.25;1268643;23;20297;-95
2022/08/28 00:38:51;;;;;;;9.55;4.53;;;;;;;12.44;90.72;101827.88;1262781;23;20262;-96
2022/08/28 00:39:24;;;;;;;6.40;4.30;;;;;;;12.44;90.94;101828.72;1258511;23;20255;-95
2022/08/28 00:39:56;;;;;;;8.85;3.97;;;;;;;12.48;91.18;101823.78;1259217;23;20263;-96
2022/08/28 00:40:29;;;;;;;7.85;4.13;;;;;;;12.53;90.95;101827.47;1263438;23;20379;-95
2022/08/28 00:41:04;;;;;;;8.45;4.22;;;;;;;12.53;91.05;101829.31;1270672;23;20583;-95
2022/08/28 00:41:37;;;;;;;11.23;3.60;;;;;;;12.45;90.90;101830.34;1268578;23;20265;-95
2022/08/28 00:42:11;;;;;;;9.20;4.43;;;;;;;12.49;90.77;101825.41;1260613;23;20309;-95
2022/08/28 00:42:45;;;;;;;11.18;4.60;;;;;;;12.38;91.02;101829.53;1260681;23;20752;-95
2022/08/28 00:43:41;;;;;;;9.48;3.83;;;;;;;12.52;91.23;101831.16;1258743;23;20263;-96
2022/08/28 00:44:19;;;;;;;8.73;4.47;;;;;;;12.51;90.55;101829.53;1261007;23;20346;-95
2022/08/28 00:44:51;;;;;;;10.82;5.35;;;;;;;12.55;90.19;101828.09;1260575;23;20269;-96
2022/08/28 00:45:23;;;;;;;10.50;4.63;;;;;;;12.58;90.85;101825.00;1262763;23;20258;-94
2022/08/28 00:45:55;;;;;;;9.52;5.05;;;;;;;12.58;90.31;101827.66;1261856;23;20315;-96
2022/08/28 00:46:26;;;;;;;9.77;4.00;;;;;;;12.52;90.39;101825.00;1267856;23;20014;-96
2022/08/28 00:46:58;;;;;;;9.35;4.72;;;;;;;12.53;90.34;101826.66;1278760;23;20237;-96
2022/08/28 00:47:30;;;;;;;13.75;4.25;;;;;;;12.55;90.61;101824.59;1266691;23;20283;-96
2022/08/28 00:48:03;;;;;;;11.55;4.80;;;;;;;12.56;90.67;101823.56;1264467;23;20265;-96
2022/08/28 00:48:34;;;;;;;14.85;5.13;;;;;;;12.54;90.28;101822.94;1266530;23;20258;-96
2022/08/28 00:49:07;;;;;;;10.77;4.78;;;;;;;12.55;90.87;101822.75;1258231;23;20262;-96
2022/08/28 00:49:45;;;;;;;11.50;4.75;;;;;;;12.61;90.30;101824.63;1261462;23;20270;-96
2022/08/28 00:50:23;;;;;;;11.43;3.83;;;;;;;12.59;90.27;101825.81;1260065;23;20255;-96
2022/08/28 00:52:35;;;;;;;30.13;4.65;;;;;;;12.57;90.92;101823.34;1268970;23;20019;-96
2022/08/28 00:53:07;;;;;;;6.32;3.42;;;;;;;12.41;90.33;101817.59;1268211;23;20011;-96
2022/08/28 00:53:38;;;;;;;8.80;5.13;;;;;;;12.31;91.08;101823.34;1271311;23;20260;-96
2022/08/28 00:54:13;;;;;;;5.20;3.25;;;;;;;12.41;90.82;101828.28;1258914;23;20255;-96
2022/08/28 00:55:10;;;;;;;9.63;4.72;;;;;;;12.42;90.92;101822.75;1258779;23;20270;-96
2022/08/28 00:55:42;;;;;;;12.13;5.07;;;;;;;12.49;90.81;101820.06;1265161;23;20249;-96
2022/08/28 00:56:16;;;;;;;10.25;4.07;;;;;;;12.48;90.82;101827.25;1255177;23;20259;-96
2022/08/28 00:56:48;;;;;;;9.52;4.60;;;;;;;12.50;91.05;101822.53;1261175;23;20262;-96
2022/08/28 00:57:27;;;;;;;6.20;4.25;;;;;;;12.53;91.14;101819.44;1257736;23;20248;-96
2022/08/28 00:58:02;;;;;;;6.53;4.20;;;;;;;12.50;90.97;101822.53;1262220;23;20251;-96
2022/08/28 00:58:51;;;;;;;12.65;4.32;;;;;;;12.52;91.12;101819.66;1258229;23;20111;-96
2022/08/28 01:02:50;;;;;;;6.00;4.45;;;;;;;12.27;90.08;101817.56;1274378;23;20370;-95
2022/08/28 01:03:21;;;;;;;6.80;4.07;;;;;;;12.17;90.39;101816.34;1272644;23;20010;-96
2022/08/28 01:03:56;;;;;;;7.70;3.60;;;;;;;12.14;90.63;101808.72;1267206;23;20002;-96
2022/08/28 01:04:30;;;;;;;6.75;3.97;;;;;;;12.14;89.96;101811.41;1267364;23;20254;-96
2022/08/28 01:05:08;;;;;;;12.90;4.75;;;;;;;12.14;90.40;101811.41;1258928;23;20271;-96
2022/08/28 01:05:42;;;;;;;6.47;4.25;;;;;;;12.18;90.27;101817.97;1258010;23;20224;-96
2022/08/28 01:06:15;;;;;;;12.50;5.15;;;;;;;12.14;90.58;101816.75;1251959;23;20255;-96
2022/08/28 01:06:57;;;;;;;8.75;3.60;;;;;;;12.16;90.90;101820.03;1252421;23;20641;-96
2022/08/28 01:07:29;;;;;;;11.07;5.15;;;;;;;12.15;91.08;101816.53;1252856;23;20275;-96
2022/08/28 01:08:03;;;;;;;7.72;4.78;;;;;;;12.19;90.97;101819.63;1247056;23;20268;-96
2022/08/28 01:08:38;;;;;;;12.48;5.70;;;;;;;12.16;91.43;101826.19;1243172;24;20253;-96
2022/08/28 01:09:11;;;;;;;9.57;3.97;;;;;;;12.15;90.83;101818.38;1250473;23;20260;-96
2022/08/28 01:09:48;;;;;;;15.45;4.90;;;;;;;12.09;90.46;101816.53;1240354;23;20621;-96
2022/08/28 01:10:21;;;;;;;8.75;4.20;;;;;;;12.11;90.34;101814.47;1244455;23;20279;-96
2022/08/28 01:10:54;;;;;;;5.88;4.07;;;;;;;12.04;89.94;101817.94;1240748;24;20253;-96
2022/08/28 01:11:27;;;;;;;9.05;4.20;;;;;;;11.99;90.06;101812.38;1249050;23;20256;-96
2022/08/28 01:12:02;;;;;;;5.80;4.25;;;;;;;11.99;90.36;101820.41;1244535;23;20272;-96
2022/08/28 01:16:31;;;;;;;6.57;5.15;;;;;;;11.73;91.27;101822.94;1262797;23;20266;-96
2022/08/28 01:17:06;;;;;;;6.70;4.13;;;;;;;11.91;91.39;101823.25;1258583;23;20247;-96
2022/08/28 01:17:40;;;;;;;7.72;3.95;;;;;;;11.86;91.01;101823.03;1252780;23;20260;-96
2022/08/28 01:18:14;;;;;;;6.60;3.83;;;;;;;11.74;91.46;101821.91;1248587;23;20240;-96
2022/08/28 01:18:47;;;;;;;6.57;3.60;;;;;;;11.66;91.52;101824.78;1248991;23;20256;-96
2022/08/28 01:19:22;;;;;;;10.52;6.10;;;;;;;11.64;91.85;101819.63;1249268;23;20244;-96
2022/08/28 01:19:58;;;;;;;8.07;4.38;;;;;;;11.61;91.41;101819.22;1249533;23;20685;-96
2022/08/28 01:20:32;;;;;;;5.93;4.47;;;;;;;11.52;91.93;101825.75;1247408;23;20286;-96
2022/08/28 01:21:43;;;;;;;6.32;3.67;;;;;;;11.58;91.89;101822.28;1251026;23;20287;-96
2022/08/28 01:22:22;;;;;;;9.15;4.88;;;;;;;11.45;91.82;101823.03;1253587;23;20251;-96
2022/08/28 01:23:12;;;;;;;10.27;4.03;;;;;;;11.43;91.70;101828.56;1246699;23;20269;-96
2022/08/28 01:23:52;;;;;;;6.88;4.22;;;;;;;11.29;92.41;101812.69;1246973;23;20249;-96
2022/08/28 01:24:24;;;;;;;3.78;3.33;;;;;;;11.29;92.85;101823.38;1244763;23;20333;-96
2022/08/28 01:24:59;;;;;;;7.47;4.93;;;;;;;11.30;92.95;101822.34;1244927;23;20281;-96
2022/08/28 01:25:33;;;;;;;5.30;3.75;;;;;;;11.27;93.11;101830.75;1246725;23;20263;-96
2022/08/28 01:26:05;;;;;;;5.88;3.50;;;;;;;11.17;92.89;101823.06;1252684;23;20256;-96
2022/08/28 01:26:42;;;;;;;5.88;3.88;;;;;;;11.10;93.20;101819.56;1247820;23;20771;-96
2022/08/28 01:27:14;;;;;;;5.05;3.70;;;;;;;11.11;93.82;101823.88;1257863;23;20240;-96
2022/08/28 01:27:45;;;;;;;5.28;3.78;;;;;;;11.17;93.59;101822.25;1249079;23;20275;-96
2022/08/28 01:28:17;;;;;;;6.90;4.63;;;;;;;11.14;93.47;101826.13;1247877;23;20252;-96
2022/08/28 01:28:50;;;;;;;7.80;4.72;;;;;;;11.04;93.76;101831.00;1250761;23;20362;-96
2022/08/28 01:29:22;;;;;;;6.10;4.07;;;;;;;10.96;93.80;101831.97;1248157;23;20252;-96
2022/08/28 01:29:54;;;;;;;4.70;2.97;;;;;;;10.95;93.89;101822.31;1252525;23;20303;-96
2022/08/28 01:30:27;;;;;;;5.80;3.58;;;;;;;11.04;93.53;101825.66;1256028;23;20274;-96
2022/08/28 01:30:59;;;;;;;8.27;4.40;;;;;;;10.98;94.02;101821.13;1247873;23;20267;-96
2022/08/28 01:31:31;;;;;;;7.40;4.40;;;;;;;10.97;94.08;101822.16;1244832;23;20594;-96
2022/08/28 01:32:04;;;;;;;7.10;3.97;;;;;;;10.94;94.51;101819.84;1243044;23;20260;-96
2022/08/28 01:36:06;;;;;;;6.80;4.13;;;;;;;11.12;94.46;101822.84;1271386;23;20314;-96
2022/08/28 01:36:38;;;;;;;11.45;4.75;;;;;;;11.19;94.14;101831.69;1256564;23;20270;-96
2022/08/28 01:37:10;;;;;;;4.20;3.00;;;;;;;11.04;93.65;101829.16;1250866;23;20794;-96
2022/08/28 01:37:42;;;;;;;11.13;4.15;;;;;;;11.05;93.82;101827.31;1252782;23;20311;-96
2022/08/28 01:38:16;;;;;;;9.82;4.10;;;;;;;11.03;93.74;101830.19;1251384;23;20305;-96
2022/08/28 01:38:59;;;;;;;8.32;4.30;;;;;;;11.09;94.01;101828.56;1245136;23;20563;-96
2022/08/28 01:39:30;;;;;;;6.68;3.80;;;;;;;11.11;93.76;101821.19;1253101;23;20244;-96
2022/08/28 01:40:04;;;;;;;6.07;4.03;;;;;;;11.12;93.88;101829.00;1259129;23;20505;-96
2022/08/28 01:40:40;;;;;;;11.20;4.07;;;;;;;11.14;94.16;101826.13;1259075;23;20265;-96
2022/08/28 01:41:12;;;;;;;8.45;4.80;;;;;;;11.18;94.08;101832.72;1248374;23;20627;-96
2022/08/28 01:41:47;;;;;;;8.38;4.35;;;;;;;11.23;94.09;101834.78;1250473;23;20271;-96
2022/08/28 01:42:19;;;;;;;8.65;4.75;;;;;;;11.23;94.20;101834.78;1252675;23;20327;-96
2022/08/28 01:42:51;;;;;;;8.27;3.67;;;;;;;11.22;94.20;101836.63;1246510;23;20265;-96
2022/08/28 01:43:25;;;;;;;8.65;3.90;;;;;;;11.33;93.94;101830.78;1244628;23;20268;-96
2022/08/28 01:43:56;;;;;;;9.43;4.25;;;;;;;11.24;93.26;101831.97;1242694;23;20253;-96
2022/08/28 01:44:28;;;;;;;10.52;4.13;;;;;;;11.14;93.74;101836.81;1242096;23;20317;-96
2022/08/28 01:44:59;;;;;;;12.15;4.65;;;;;;;11.06;93.47;101843.13;1251965;23;20271;-96
2022/08/28 01:45:31;;;;;;;8.18;5.10;;;;;;;10.95;93.26;101835.63;1251630;23;20267;-96
2022/08/28 01:46:04;;;;;;;7.68;4.55;;;;;;;10.91;92.95;101831.72;1245700;23;20366;-96
2022/08/28 01:46:36;;;;;;;9.23;4.82;;;;;;;10.95;92.69;101842.81;1246615;23;20260;-96
2022/08/28 01:47:09;;;;;;;8.80;4.75;;;;;;;11.01;92.72;101839.41;1247177;23;20337;-96
2022/08/28 01:47:42;;;;;;;9.43;4.88;;;;;;;10.98;93.33;101837.13;1243654;23;20264;-96
2022/08/28 01:48:14;;;;;;;7.55;3.75;;;;;;;10.94;92.84;101830.50;1248486;23;20237;-96
2022/08/28 01:48:48;;;;;;;10.60;3.80;;;;;;;11.03;93.01;101837.34;1245184;23;20717;-96
2022/08/28 01:49:21;;;;;;;10.05;4.00;;;;;;;11.07;93.21;101841.28;1254540;23;20240;-96
2022/08/28 01:49:53;;;;;;;8.85;3.65;;;;;;;11.01;93.40;101836.72;1258529;23;20278;-96
2022/08/28 01:50:24;;;;;;;5.68;3.60;;;;;;;10.97;93.18;101836.28;1245058;23;20317;-96
2022/08/28 01:50:56;;;;;;;8.30;4.97;;;;;;;10.91;93.33;101836.22;1248491;23;20760;-96
2022/08/28 01:51:27;;;;;;;10.00;5.05;;;;;;;10.91;93.48;101837.06;1250935;23;20271;-96
2022/08/28 01:52:05;;;;;;;7.63;4.63;;;;;;;10.92;93.36;101833.38;1250666;23;20244;-96
2022/08/28 01:52:37;;;;;;;10.60;4.82;;;;;;;10.88;93.52;101837.44;1253067;23;20244;-96
2022/08/28 01:53:14;;;;;;;9.50;4.15;;;;;;;10.81;94.62;101837.41;1246886;23;20261;-96
2022/08/28 01:53:46;;;;;;;10.43;4.38;;;;;;;10.87;94.28;101835.78;1248558;23;20268;-96
2022/08/28 01:54:17;;;;;;;7.60;4.07;;;;;;;10.73;94.21;101840.22;1247184;23;20343;-96
2022/08/28 01:54:49;;;;;;;11.20;3.97;;;;;;;10.75;93.74;101840.84;1253020;23;20736;-96
2022/08/28 01:55:23;;;;;;;7.78;4.53;;;;;;;10.69;94.17;101836.28;1241655;23;20324;-96
2022/08/28 02:00:14;;;;;;;9.32;5.05;;;;;;;10.98;94.74;101837.13;1262576;23;20317;-96
2022/08/28 02:00:46;;;;;;;10.32;3.95;;;;;;;11.05;95.07;101840.66;1258837;23;20769;-96
2022/08/28 02:01:19;;;;;;;9.75;4.78;;;;;;;11.13;95.15;101835.16;1258971;23;20263;-96
2022/08/28 02:01:51;;;;;;;10.48;4.97;;;;;;;11.14;94.55;101840.28;1251579;23;20354;-96
2022/08/28 02:02:23;;;;;;;6.55;4.75;;;;;;;11.18;94.92;101840.72;1245645;23;20371;-85
2022/08/28 02:02:56;;;;;;;9.50;4.65;;;;;;;11.19;94.98;101839.69;1253084;23;20244;-85
2022/08/28 02:03:27;;;;;;;6.70;4.45;;;;;;;11.24;94.75;101841.81;1262316;23;20564;-85
2022/08/28 02:03:59;;;;;;;12.40;4.72;;;;;;;11.23;94.58;101846.31;1268565;23;20257;-85
2022/08/28 02:04:31;;;;;;;8.63;5.20;;;;;;;11.22;94.67;101844.66;1267866;23;20745;-85
2022/08/28 02:05:05;;;;;;;9.88;4.40;;;;;;;11.18;94.84;101839.91;1262314;23;20320;-85
2022/08/28 02:05:38;;;;;;;8.43;4.07;;;;;;;11.08;94.67;101837.59;1259542;23;20750;-85
2022/08/28 02:06:11;;;;;;;11.55;5.20;;;;;;;11.02;94.54;101833.88;1255593;23;20258;-85
2022/08/28 02:06:42;;;;;;;11.02;4.25;;;;;;;10.96;94.32;101836.50;1259536;23;20266;-85
2022/08/28 02:07:15;;;;;;;5.45;4.60;;;;;;;10.93;93.93;101844.84;1259654;23;20274;-85
2022/08/28 02:07:47;;;;;;;6.38;3.83;;;;;;;10.84;93.19;101842.34;1254438;23;20255;-85
2022/08/28 02:08:19;;;;;;;5.38;3.85;;;;;;;10.81;93.13;101831.25;1244621;23;20744;-85
2022/08/28 02:08:54;;;;;;;8.82;3.60;;;;;;;10.82;92.89;101836.38;1247770;23;20342;-84
2022/08/28 02:09:25;;;;;;;13.35;3.28;;;;;;;10.95;92.14;101837.47;1245547;23;20272;-85
2022/08/28 02:09:57;;;;;;;8.52;3.90;;;;;;;10.90;92.21;101839.91;1246579;23;20256;-85
2022/08/28 02:10:30;;;;;;;9.60;4.28;;;;;;;10.81;91.45;101832.06;1256902;23;20262;-85
2022/08/28 02:11:05;;;;;;;4.28;3.45;;;;;;;10.74;91.25;101836.53;1263193;23;20258;-85
2022/08/28 02:11:38;;;;;;;8.20;4.32;;;;;;;10.66;91.01;101836.66;1261494;23;20389;-84
2022/08/28 02:12:15;;;;;;;7.50;4.20;;;;;;;10.77;91.41;101833.47;1253603;23;20266;-85
2022/08/28 02:13:02;;;;;;;5.15;3.55;;;;;;;10.67;91.52;101835.63;1255606;23;20255;-84
2022/08/28 02:13:37;;;;;;;7.00;4.13;;;;;;;10.62;91.75;101842.56;1247220;23;20272;-85
2022/08/28 02:14:09;;;;;;;8.25;4.75;;;;;;;10.56;91.79;101838.81;1254060;23;20258;-85
2022/08/28 02:14:40;;;;;;;8.20;4.07;;;;;;;10.56;92.52;101844.16;1253248;23;20323;-85
2022/08/28 02:15:12;;;;;;;9.50;4.40;;;;;;;10.52;92.79;101843.72;1263110;23;20707;-85
2022/08/28 02:15:44;;;;;;;5.93;3.25;;;;;;;10.34;93.14;101840.66;1253469;23;20267;-85
2022/08/28 02:16:16;;;;;;;7.68;3.47;;;;;;;10.40;93.28;101849.72;1253387;23;20275;-85
2022/08/28 02:16:48;;;;;;;11.00;4.60;;;;;;;10.36;93.23;101843.13;1250603;23;20792;-84
2022/08/28 02:17:20;;;;;;;9.82;4.40;;;;;;;10.37;94.08;101845.59;1247539;23;20276;-85
2022/08/28 02:17:51;;;;;;;10.55;4.20;;;;;;;10.44;94.42;101845.69;1241768;23;20283;-84
2022/08/28 02:18:23;;;;;;;9.98;5.00;;;;;;;10.30;94.89;101846.56;1247417;23;20294;-85
2022/08/28 02:18:55;;;;;;;8.02;3.83;;;;;;;10.33;94.74;101849.66;1253497;23;20271;-85
2022/08/28 02:19:26;;;;;;;7.60;4.28;;;;;;;10.33;95.27;101848.84;1253547;23;20274;-85
2022/08/28 02:19:58;;;;;;;5.47;3.53;;;;;;;10.36;95.71;101848.47;1253245;23;20267;-85
2022/08/28 02:20:30;;;;;;;5.05;3.53;;;;;;;10.30;95.61;101844.72;1249833;23;20334;-85
2022/08/28 02:21:03;;;;;;;6.38;4.20;;;;;;;10.30;95.18;101843.91;1251471;23;20589;-85
2022/08/28 02:21:35;;;;;;;5.70;3.83;;;;;;;10.29;95.67;101847.56;1257261;23;20354;-85
2022/08/28 02:22:07;;;;;;;10.75;4.25;;;;;;;10.30;95.60;101849.22;1253567;23;20271;-85
2022/08/28 02:22:38;;;;;;;5.03;3.60;;;;;;;10.40;95.27;101847.06;1243771;23;20271;-85
2022/08/28 02:23:10;;;;;;;5.38;3.47;;;;;;;10.29;95.28;101851.06;1248316;23;20272;-85
2022/08/28 02:23:42;;;;;;;5.38;4.05;;;;;;;10.30;95.38;101854.53;1259172;23;20270;-84
2022/08/28 02:24:15;;;;;;;5.65;4.05;;;;;;;10.27;94.78;101850.44;1255634;23;20270;-85
2022/08/28 02:24:47;;;;;;;5.55;3.28;;;;;;;10.29;95.22;101852.91;1255693;23;20262;-84
2022/08/28 02:25:18;;;;;;;6.57;4.10;;;;;;;10.33;94.90;101847.00;1255237;23;20704;-85
2022/08/28 02:25:50;;;;;;;8.25;3.88;;;;;;;10.33;94.84;101851.50;1250862;23;20252;-84
2022/08/28 02:26:25;;;;;;;8.82;4.70;;;;;;;10.26;94.90;101850.63;1255131;23;20765;-85
2022/08/28 02:26:57;;;;;;;5.88;4.10;;;;;;;10.17;94.32;101853.38;1262913;23;20285;-85
2022/08/28 02:27:29;;;;;;;8.55;3.90;;;;;;;10.06;94.74;101850.38;1256992;23;20310;-85
2022/08/28 02:28:02;;;;;;;6.90;4.57;;;;;;;10.07;95.14;101850.19;1247344;23;20271;-84
2022/08/28 02:28:33;;;;;;;9.10;5.45;;;;;;;10.00;95.03;101849.28;1245582;23;20257;-85
2022/08/28 02:29:05;;;;;;;7.25;4.00;;;;;;;10.08;95.98;101851.00;1244737;23;20277;-85
2022/08/28 02:29:37;;;;;;;9.15;5.13;;;;;;;9.95;95.57;101857.00;1251247;23;20259;-85
2022/08/28 02:30:10;;;;;;;5.30;3.85;;;;;;;9.97;96.04;101846.19;1248550;23;20264;-85
2022/08/28 02:30:42;;;;;;;6.03;3.80;;;;;;;10.02;96.53;101847.25;1253865;23;20267;-84
2022/08/28 02:31:14;;;;;;;6.65;3.85;;;;;;;10.00;96.64;101849.28;1253930;23;20278;-84
2022/08/28 02:31:46;;;;;;;6.15;4.00;;;;;;;10.05;97.11;101852.19;1256225;23;20703;-85
2022/08/28 02:32:17;;;;;;;7.20;4.03;;;;;;;9.91;97.28;101855.75;1259445;23;20274;-85
2022/08/28 02:32:50;;;;;;;3.72;3.33;;;;;;;9.83;97.87;101853.16;1256752;23;20261;-84
2022/08/28 02:33:21;;;;;;;7.05;3.58;;;;;;;9.78;97.81;101856.38;1244018;23;20745;-85
2022/08/28 02:33:54;;;;;;;7.18;4.50;;;;;;;9.82;98.18;101851.50;1256185;23;20299;-85
2022/08/28 02:34:25;;;;;;;5.32;4.60;;;;;;;9.97;98.39;101849.66;1257046;23;20255;-85
2022/08/28 02:34:57;;;;;;;8.40;4.05;;;;;;;9.91;98.16;101853.09;1261890;23;20763;-85
2022/08/28 02:35:29;;;;;;;6.72;4.70;;;;;;;10.02;98.18;101852.59;1249934;23;20286;-85
2022/08/28 02:36:01;;;;;;;8.02;4.38;;;;;;;9.96;97.74;101848.00;1261204;23;20254;-85
2022/08/28 02:36:33;;;;;;;5.80;3.97;;;;;;;9.90;97.47;101854.09;1247913;23;20647;-85
2022/08/28 02:37:08;;;;;;;5.38;4.50;;;;;;;9.79;97.44;101851.88;1250867;23;20701;-85
2022/08/28 02:37:43;;;;;;;7.18;3.97;;;;;;;9.80;98.04;101853.53;1249786;23;20271;-85
2022/08/28 02:38:16;;;;;;;5.30;3.58;;;;;;;9.81;97.90;101853.34;1258169;23;20251;-85
2022/08/28 02:38:51;;;;;;;6.10;3.88;;;;;;;9.80;97.50;101851.72;1258533;23;20318;-85
2022/08/28 02:39:28;;;;;;;5.38;3.90;;;;;;;9.78;98.12;101845.75;1259160;23;20591;-84
2022/08/28 02:39:59;;;;;;;6.63;3.85;;;;;;;9.72;98.43;101851.00;1253767;23;20775;-85
2022/08/28 02:40:31;;;;;;;7.60;4.40;;;;;;;9.69;98.49;101846.88;1258696;23;20282;-85
2022/08/28 02:41:04;;;;;;;8.35;4.00;;;;;;;9.68;99.38;101844.41;1264205;23;20348;-85
2022/08/28 02:41:36;;;;;;;5.78;3.90;;;;;;;9.67;99.46;101842.75;1263760;23;20263;-84
2022/08/28 02:42:08;;;;;;;5.75;3.90;;;;;;;9.66;99.62;101847.25;1262057;23;20242;-85
2022/08/28 02:42:40;;;;;;;7.18;3.70;;;;;;;9.64;99.01;101843.13;1248167;23;20307;-85
2022/08/28 02:43:12;;;;;;;4.28;3.88;;;;;;;9.58;99.67;101844.66;1247992;23;20274;-85
2022/08/28 02:43:44;;;;;;;5.22;3.88;;;;;;;9.54;99.79;101843.38;1250968;23;20275;-85
2022/08/28 02:44:16;;;;;;;7.10;4.10;;;;;;;9.67;100.00;101848.91;1248339;23;20283;-85
2022/08/28 02:44:47;;;;;;;8.00;3.70;;;;;;;9.62;99.65;101842.50;1258095;23;20254;-85
2022/08/28 02:45:20;;;;;;;5.80;4.43;;;;;;;9.65;99.87;101847.44;1273831;23;20713;-85
2022/08/28 02:45:51;;;;;;;15.10;4.22;;;;;;;9.64;99.81;101843.13;1274117;23;20260;-84
2022/08/28 02:46:25;;;;;;;7.25;3.70;;;;;;;9.63;100.00;101842.31;1259989;23;20353;-85
2022/08/28 02:46:56;;;;;;;8.15;3.83;;;;;;;9.68;99.83;101841.75;1247865;23;20274;-85
2022/08/28 02:47:28;;;;;;;5.50;4.03;;;;;;;9.73;98.94;101842.00;1244133;23;20264;-85
2022/08/28 02:48:00;;;;;;;5.93;3.60;;;;;;;9.71;99.24;101838.69;1248032;23;20267;-85
2022/08/28 02:48:34;;;;;;;6.53;3.70;;;;;;;9.70;98.48;101847.69;1248522;23;20275;-85
2022/08/28 02:49:06;;;;;;;9.45;3.45;;;;;;;9.73;98.12;101853.47;1249986;23;20399;-85
2022/08/28 02:49:37;;;;;;;4.93;3.38;;;;;;;9.72;97.87;101851.81;1248886;23;20326;-84
2022/08/28 02:50:11;;;;;;;8.63;4.53;;;;;;;9.79;98.10;101851.88;1252569;23;20266;-85
2022/08/28 02:50:45;;;;;;;7.47;4.90;;;;;;;9.74;97.66;101848.97;1257114;23;20251;-84
2022/08/28 02:51:18;;;;;;;7.45;4.35;;;;;;;9.72;97.71;101857.13;1249220;23;20278;-85
2022/08/28 02:51:50;;;;;;;6.28;3.88;;;;;;;9.73;97.34;101855.31;1243878;23;20275;-84
2022/08/28 02:52:23;;;;;;;8.68;4.40;;;;;;;9.72;97.01;101851.00;1245731;23;20260;-85
2022/08/28 02:52:55;;;;;;;9.95;4.38;;;;;;;9.75;97.23;101850.63;1255020;23;20274;-84
2022/08/28 02:53:27;;;;;;;8.57;4.55;;;;;;;9.66;96.81;101846.41;1247945;23;20267;-84
2022/08/28 02:53:59;;;;;;;6.50;3.63;;;;;;;9.73;96.38;101856.13;1255800;23;20274;-85
2022/08/28 02:54:31;;;;;;;7.10;4.75;;;;;;;9.58;97.00;101856.13;1255752;23;20247;-84
2022/08/28 02:55:04;;;;;;;7.10;5.07;;;;;;;9.67;96.57;101848.91;1256561;23;20254;-85
2022/08/28 02:55:36;;;;;;;5.80;4.95;;;;;;;9.63;96.94;101852.94;1249179;23;20327;-85
2022/08/28 02:56:08;;;;;;;6.35;4.80;;;;;;;9.57;96.65;101849.16;1251370;23;20744;-85
2022/08/28 02:56:40;;;;;;;8.75;3.85;;;;;;;9.55;97.04;101851.19;1259906;23;20608;-85
2022/08/28 02:57:13;;;;;;;5.72;3.92;;;;;;;9.55;96.59;101853.00;1249913;23;20263;-85
2022/08/28 02:57:46;;;;;;;9.02;4.60;;;;;;;9.47;97.21;101847.81;1253940;23;20266;-85